Date,TemperatureHighF,TemperatureAvgF,TemperatureLowF,DewpointHighF,DewpointAvgF,DewpointLowF,HumidityHigh,HumidityAvg,HumidityLow,PressureMaxIn,PressureMinIn,WindSpeedMaxMPH,WindSpeedAvgMPH,GustSpeedMaxMPH,PrecipitationSumIn
2013-1-1,42,40,35,31,30,27,79,69,60,30.01,29.91,5,1,6,0.00
2013-1-2,36,31,25,27,19,14,74,62,45,30.23,29.99,5,1,7,0.00
2013-1-3,38,29,18,23,19,14,85,67,51,30.24,30.13,5,0,6,0.00
2013-1-4,40,36,33,25,23,22,65,60,53,30.20,30.10,10,5,12,0.00
2013-1-5,43,36,32,28,24,21,78,62,49,30.37,30.14,9,1,10,0.00
2013-1-6,46,39,30,32,29,25,84,68,54,30.17,30.01,3,0,7,0.00
2013-1-7,43,38,26,32,27,20,79,64,54,30.43,30.14,4,1,10,0.00
2013-1-8,51,33,20,36,26,18,90,78,55,30.40,30.33,1,0,2,0.00
2013-1-9,50,36,25,42,31,22,93,82,53,30.40,30.22,6,0,7,0.00
2013-1-10,50,45,38,34,32,28,78,60,51,30.60,30.38,7,1,10,0.00
2013-1-11,47,42,37,42,36,30,94,78,63,30.46,30.08,6,2,10,0.01
2013-1-12,59,46,40,52,43,39,96,90,76,30.16,30.07,1,0,2,0.00
2013-1-13,58,50,42,53,48,40,96,92,84,30.07,29.91,4,0,5,0.00
2013-1-14,53,49,39,52,42,34,97,80,63,30.30,29.92,6,2,11,0.02
2013-1-15,40,38,34,36,35,33,94,88,80,30.33,30.15,2,0,4,0.04
2013-1-16,38,36,33,37,35,32,96,95,94,30.15,29.84,4,0,5,0.00
2013-1-17,43,39,36,39,31,26,96,74,54,30.13,29.97,5,1,7,0.00
2013-1-18,37,33,29,29,19,13,73,56,38,30.48,30.05,9,2,13,0.00
2013-1-19,58,42,29,32,27,22,76,58,33,30.35,29.90,5,1,7,0.00
2013-1-20,54,43,30,34,24,14,65,48,27,30.07,29.80,14,3,16,0.00
2013-1-21,43,32,26,23,18,11,73,57,38,30.08,29.80,8,2,13,0.00
2013-1-22,25,18,14,10,1,-2,60,46,37,30.29,29.97,11,4,20,0.00
2013-1-23,25,18,11,12,3,1,70,52,38,30.35,30.13,6,1,14,0.00
2013-1-24,26,20,15,16,9,0,89,64,42,30.52,30.09,9,2,13,0.00
2013-1-25,23,18,12,17,10,1,88,72,49,30.52,30.06,3,0,6,0.00
2013-1-26,31,25,18,26,21,15,91,85,75,30.43,30.07,1,0,2,0.00
2013-1-27,35,28,19,24,19,13,83,71,57,30.59,30.43,2,0,4,0.00
2013-1-28,42,36,29,40,33,24,94,89,80,30.44,30.03,2,0,4,0.00
2013-1-29,69,54,41,57,49,39,96,85,65,30.09,29.97,2,1,4,0.00
2013-1-30,70,58,55,62,56,54,96,92,70,29.59,29.20,10,2,10,1.37
2013-1-31,55,39,29,55,27,13,99,63,48,29.87,29.16,15,8,21,0.36